sensor_id;sensor_type;location;lat;lon;timestamp;temperature;humidity
75284;HTU21D;63877;48.702;44.594;2022-12-18T00:02:01;2.31;118.99
75284;HTU21D;63877;48.702;44.594;2022-12-18T00:04:27;2.30;118.99
75284;HTU21D;63877;48.702;44.594;2022-12-18T00:06:53;2.30;118.99
75284;HTU21D;63877;48.702;44.594;2022-12-18T00:09:19;2.31;118.99
75284;HTU21D;63877;48.702;44.594;2022-12-18T00:11:45;2.31;118.99
75284;HTU21D;63877;48.702;44.594;2022-12-18T00:14:11;2.32;118.99
75284;HTU21D;63877;48.702;44.594;2022-12-18T00:16:37;2.30;118.99
75284;HTU21D;63877;48.702;44.594;2022-12-18T00:19:03;2.31;118.99
75284;HTU21D;63877;48.702;44.594;2022-12-18T00:21:30;2.32;118.99
75284;HTU21D;63877;48.702;44.594;2022-12-18T00:23:57;2.30;118.99
75284;HTU21D;63877;48.702;44.594;2022-12-18T00:26:23;2.32;118.99
75284;HTU21D;63877;48.702;44.594;2022-12-18T00:28:53;2.31;118.99
75284;HTU21D;63877;48.702;44.594;2022-12-18T00:31:22;2.31;118.99
75284;HTU21D;63877;48.702;44.594;2022-12-18T00:33:48;2.32;118.99
75284;HTU21D;63877;48.702;44.594;2022-12-18T00:36:18;2.34;118.99
75284;HTU21D;63877;48.702;44.594;2022-12-18T00:38:44;2.34;118.99
75284;HTU21D;63877;48.702;44.594;2022-12-18T00:41:11;2.31;118.99
75284;HTU21D;63877;48.702;44.594;2022-12-18T00:43:37;2.31;118.99
75284;HTU21D;63877;48.702;44.594;2022-12-18T00:46:03;2.31;118.99
75284;HTU21D;63877;48.702;44.594;2022-12-18T00:48:30;2.32;118.99
75284;HTU21D;63877;48.702;44.594;2022-12-18T00:50:56;2.32;118.99
75284;HTU21D;63877;48.702;44.594;2022-12-18T00:53:22;2.32;118.99
75284;HTU21D;63877;48.702;44.594;2022-12-18T00:55:48;2.32;118.99
75284;HTU21D;63877;48.702;44.594;2022-12-18T00:58:14;2.32;118.99
75284;HTU21D;63877;48.702;44.594;2022-12-18T01:00:41;2.34;118.99
75284;HTU21D;63877;48.702;44.594;2022-12-18T01:03:11;2.32;118.99
75284;HTU21D;63877;48.702;44.594;2022-12-18T01:05:39;2.34;118.99
75284;HTU21D;63877;48.702;44.594;2022-12-18T01:08:05;2.34;118.99
75284;HTU21D;63877;48.702;44.594;2022-12-18T01:10:31;2.32;118.99
75284;HTU21D;63877;48.702;44.594;2022-12-18T01:12:56;2.34;118.99
75284;HTU21D;63877;48.702;44.594;2022-12-18T01:15:22;2.34;118.99
75284;HTU21D;63877;48.702;44.594;2022-12-18T01:17:48;2.32;118.99
75284;HTU21D;63877;48.702;44.594;2022-12-18T01:20:14;2.31;118.99
75284;HTU21D;63877;48.702;44.594;2022-12-18T01:22:40;2.31;118.99
75284;HTU21D;63877;48.702;44.594;2022-12-18T01:25:06;2.31;118.99
75284;HTU21D;63877;48.702;44.594;2022-12-18T01:27:33;2.31;118.99
75284;HTU21D;63877;48.702;44.594;2022-12-18T01:29:59;2.31;118.99
75284;HTU21D;63877;48.702;44.594;2022-12-18T01:32:25;2.30;118.99
75284;HTU21D;63877;48.702;44.594;2022-12-18T01:34:51;2.31;118.99
75284;HTU21D;63877;48.702;44.594;2022-12-18T01:37:16;2.31;118.99
75284;HTU21D;63877;48.702;44.594;2022-12-18T01:39:42;2.31;118.99
75284;HTU21D;63877;48.702;44.594;2022-12-18T01:42:11;2.30;118.99
75284;HTU21D;63877;48.702;44.594;2022-12-18T01:49:45;2.31;118.99
75284;HTU21D;63877;48.702;44.594;2022-12-18T01:52:11;2.32;118.99
75284;HTU21D;63877;48.702;44.594;2022-12-18T01:54:36;2.31;118.99
75284;HTU21D;63877;48.702;44.594;2022-12-18T01:57:02;2.31;118.99
75284;HTU21D;63877;48.702;44.594;2022-12-18T01:59:28;2.29;118.99
75284;HTU21D;63877;48.702;44.594;2022-12-18T02:01:56;2.29;118.99
75284;HTU21D;63877;48.702;44.594;2022-12-18T02:04:23;2.28;118.99
75284;HTU21D;63877;48.702;44.594;2022-12-18T02:06:56;2.29;118.99
75284;HTU21D;63877;48.702;44.594;2022-12-18T02:09:28;2.30;118.99
75284;HTU21D;63877;48.702;44.594;2022-12-18T02:14:48;2.29;118.99
75284;HTU21D;63877;48.702;44.594;2022-12-18T02:17:16;2.30;118.99
75284;HTU21D;63877;48.702;44.594;2022-12-18T02:27:16;2.30;118.99
75284;HTU21D;63877;48.702;44.594;2022-12-18T02:29:46;2.30;118.99
75284;HTU21D;63877;48.702;44.594;2022-12-18T02:32:14;2.30;118.99
75284;HTU21D;63877;48.702;44.594;2022-12-18T02:34:41;2.29;118.99
75284;HTU21D;63877;48.702;44.594;2022-12-18T02:37:13;2.30;118.99
75284;HTU21D;63877;48.702;44.594;2022-12-18T02:39:41;2.30;118.99
75284;HTU21D;63877;48.702;44.594;2022-12-18T02:42:10;2.31;118.99
75284;HTU21D;63877;48.702;44.594;2022-12-18T02:44:46;2.31;118.99
75284;HTU21D;63877;48.702;44.594;2022-12-18T02:47:15;2.31;118.99
75284;HTU21D;63877;48.702;44.594;2022-12-18T02:54:48;2.31;118.99
75284;HTU21D;63877;48.702;44.594;2022-12-18T02:57:19;2.31;118.99
75284;HTU21D;63877;48.702;44.594;2022-12-18T03:00:08;2.32;118.99
75284;HTU21D;63877;48.702;44.594;2022-12-18T03:05:14;2.32;118.99
75284;HTU21D;63877;48.702;44.594;2022-12-18T03:07:50;2.34;118.99
75284;HTU21D;63877;48.702;44.594;2022-12-18T03:10:19;2.35;118.99
75284;HTU21D;63877;48.702;44.594;2022-12-18T03:12:47;2.34;118.99
75284;HTU21D;63877;48.702;44.594;2022-12-18T03:17:52;2.35;118.99
75284;HTU21D;63877;48.702;44.594;2022-12-18T03:20:24;2.36;118.99
75284;HTU21D;63877;48.702;44.594;2022-12-18T03:22:53;2.34;118.99
75284;HTU21D;63877;48.702;44.594;2022-12-18T03:25:19;2.35;118.99
75284;HTU21D;63877;48.702;44.594;2022-12-18T03:27:47;2.35;118.99
75284;HTU21D;63877;48.702;44.594;2022-12-18T03:30:15;2.36;118.99
75284;HTU21D;63877;48.702;44.594;2022-12-18T03:32:46;2.37;118.99
75284;HTU21D;63877;48.702;44.594;2022-12-18T03:35:14;2.36;118.99
75284;HTU21D;63877;48.702;44.594;2022-12-18T03:37:42;2.37;118.99
75284;HTU21D;63877;48.702;44.594;2022-12-18T03:40:08;2.38;118.99
75284;HTU21D;63877;48.702;44.594;2022-12-18T03:42:43;2.38;118.99
75284;HTU21D;63877;48.702;44.594;2022-12-18T03:55:49;2.39;118.99
75284;HTU21D;63877;48.702;44.594;2022-12-18T03:58:17;2.39;118.99
75284;HTU21D;63877;48.702;44.594;2022-12-18T04:00:53;2.39;118.99
75284;HTU21D;63877;48.702;44.594;2022-12-18T04:03:20;2.38;118.99
75284;HTU21D;63877;48.702;44.594;2022-12-18T04:05:48;2.39;118.99
75284;HTU21D;63877;48.702;44.594;2022-12-18T04:08:18;2.39;118.99
75284;HTU21D;63877;48.702;44.594;2022-12-18T04:10:52;2.39;118.99
75284;HTU21D;63877;48.702;44.594;2022-12-18T04:13:27;2.39;118.99
75284;HTU21D;63877;48.702;44.594;2022-12-18T04:15:54;2.38;118.99
75284;HTU21D;63877;48.702;44.594;2022-12-18T04:18:20;2.40;118.99
75284;HTU21D;63877;48.702;44.594;2022-12-18T04:20:48;2.41;118.99
75284;HTU21D;63877;48.702;44.594;2022-12-18T04:23:14;2.40;118.99
75284;HTU21D;63877;48.702;44.594;2022-12-18T04:25:40;2.41;118.99
75284;HTU21D;63877;48.702;44.594;2022-12-18T04:28:10;2.41;118.99
75284;HTU21D;63877;48.702;44.594;2022-12-18T04:30:37;2.42;118.99
75284;HTU21D;63877;48.702;44.594;2022-12-18T04:33:07;2.41;118.99
75284;HTU21D;63877;48.702;44.594;2022-12-18T04:35:33;2.41;118.99
75284;HTU21D;63877;48.702;44.594;2022-12-18T04:37:59;2.42;118.99
75284;HTU21D;63877;48.702;44.594;2022-12-18T04:40:26;2.42;118.99
75284;HTU21D;63877;48.702;44.594;2022-12-18T04:42:52;2.41;118.99
75284;HTU21D;63877;48.702;44.594;2022-12-18T04:45:17;2.43;118.99
75284;HTU21D;63877;48.702;44.594;2022-12-18T04:47:44;2.42;118.99
75284;HTU21D;63877;48.702;44.594;2022-12-18T04:50:09;2.41;118.99
75284;HTU21D;63877;48.702;44.594;2022-12-18T04:52:35;2.43;118.99
75284;HTU21D;63877;48.702;44.594;2022-12-18T04:55:01;2.44;118.99
75284;HTU21D;63877;48.702;44.594;2022-12-18T04:57:27;2.44;118.99
75284;HTU21D;63877;48.702;44.594;2022-12-18T04:59:53;2.43;118.99
75284;HTU21D;63877;48.702;44.594;2022-12-18T05:02:19;2.45;118.99
75284;HTU21D;63877;48.702;44.594;2022-12-18T05:04:44;2.45;118.99
75284;HTU21D;63877;48.702;44.594;2022-12-18T05:07:10;2.46;118.99
75284;HTU21D;63877;48.702;44.594;2022-12-18T05:09:36;2.47;118.99
75284;HTU21D;63877;48.702;44.594;2022-12-18T05:12:02;2.49;118.99
75284;HTU21D;63877;48.702;44.594;2022-12-18T05:14:27;2.50;118.99
75284;HTU21D;63877;48.702;44.594;2022-12-18T05:16:54;2.50;118.99
75284;HTU21D;63877;48.702;44.594;2022-12-18T05:19:20;2.52;118.99
75284;HTU21D;63877;48.702;44.594;2022-12-18T05:21:46;2.51;118.99
75284;HTU21D;63877;48.702;44.594;2022-12-18T05:24:11;2.52;118.99
75284;HTU21D;63877;48.702;44.594;2022-12-18T05:26:37;2.53;118.99
75284;HTU21D;63877;48.702;44.594;2022-12-18T05:29:03;2.53;118.99
75284;HTU21D;63877;48.702;44.594;2022-12-18T05:31:29;2.54;118.99
75284;HTU21D;63877;48.702;44.594;2022-12-18T05:33:54;2.55;118.99
75284;HTU21D;63877;48.702;44.594;2022-12-18T05:36:20;2.57;118.99
75284;HTU21D;63877;48.702;44.594;2022-12-18T05:38:46;2.56;118.99
75284;HTU21D;63877;48.702;44.594;2022-12-18T05:41:12;2.57;118.99
75284;HTU21D;63877;48.702;44.594;2022-12-18T05:43:38;2.60;118.99
75284;HTU21D;63877;48.702;44.594;2022-12-18T05:46:08;2.60;118.99
75284;HTU21D;63877;48.702;44.594;2022-12-18T05:48:34;2.62;118.99
75284;HTU21D;63877;48.702;44.594;2022-12-18T05:51:18;2.64;118.99
75284;HTU21D;63877;48.702;44.594;2022-12-18T05:53:44;2.67;118.99
75284;HTU21D;63877;48.702;44.594;2022-12-18T05:56:11;2.68;118.99
75284;HTU21D;63877;48.702;44.594;2022-12-18T05:58:37;2.70;118.99
75284;HTU21D;63877;48.702;44.594;2022-12-18T06:01:07;2.72;118.99
75284;HTU21D;63877;48.702;44.594;2022-12-18T06:03:33;2.74;118.99
75284;HTU21D;63877;48.702;44.594;2022-12-18T06:05:59;2.74;118.99
75284;HTU21D;63877;48.702;44.594;2022-12-18T06:08:25;2.76;118.99
75284;HTU21D;63877;48.702;44.594;2022-12-18T06:10:51;2.76;118.99
75284;HTU21D;63877;48.702;44.594;2022-12-18T06:13:20;2.80;118.99
75284;HTU21D;63877;48.702;44.594;2022-12-18T06:15:46;2.82;118.99
75284;HTU21D;63877;48.702;44.594;2022-12-18T06:18:12;2.84;118.99
75284;HTU21D;63877;48.702;44.594;2022-12-18T06:20:37;2.85;118.99
75284;HTU21D;63877;48.702;44.594;2022-12-18T06:23:05;2.88;118.99
75284;HTU21D;63877;48.702;44.594;2022-12-18T06:25:31;2.90;118.99
75284;HTU21D;63877;48.702;44.594;2022-12-18T06:27:57;2.91;118.99
75284;HTU21D;63877;48.702;44.594;2022-12-18T06:30:23;2.94;118.99
75284;HTU21D;63877;48.702;44.594;2022-12-18T06:32:49;2.96;118.99
75284;HTU21D;63877;48.702;44.594;2022-12-18T06:35:15;2.98;118.99
75284;HTU21D;63877;48.702;44.594;2022-12-18T06:37:41;3.00;118.99
75284;HTU21D;63877;48.702;44.594;2022-12-18T06:40:06;3.00;118.99
75284;HTU21D;63877;48.702;44.594;2022-12-18T06:42:32;3.03;118.99
75284;HTU21D;63877;48.702;44.594;2022-12-18T06:44:58;3.04;118.99
75284;HTU21D;63877;48.702;44.594;2022-12-18T06:47:24;3.08;118.99
75284;HTU21D;63877;48.702;44.594;2022-12-18T06:49:49;3.11;118.99
75284;HTU21D;63877;48.702;44.594;2022-12-18T06:52:15;3.14;118.99
75284;HTU21D;63877;48.702;44.594;2022-12-18T06:54:41;3.15;118.99
75284;HTU21D;63877;48.702;44.594;2022-12-18T06:57:07;3.18;118.99
75284;HTU21D;63877;48.702;44.594;2022-12-18T06:59:32;3.20;118.99
75284;HTU21D;63877;48.702;44.594;2022-12-18T07:01:58;3.20;118.99
75284;HTU21D;63877;48.702;44.594;2022-12-18T07:04:28;3.21;118.99
75284;HTU21D;63877;48.702;44.594;2022-12-18T07:06:54;3.23;118.99
75284;HTU21D;63877;48.702;44.594;2022-12-18T07:09:19;3.28;118.99
75284;HTU21D;63877;48.702;44.594;2022-12-18T07:11:45;3.31;118.99
75284;HTU21D;63877;48.702;44.594;2022-12-18T07:14:11;3.33;118.99
75284;HTU21D;63877;48.702;44.594;2022-12-18T07:16:37;3.35;118.99
75284;HTU21D;63877;48.702;44.594;2022-12-18T07:19:02;3.38;118.99
75284;HTU21D;63877;48.702;44.594;2022-12-18T07:21:28;3.39;118.99
75284;HTU21D;63877;48.702;44.594;2022-12-18T07:23:54;3.41;118.99
75284;HTU21D;63877;48.702;44.594;2022-12-18T07:26:20;3.43;118.99
75284;HTU21D;63877;48.702;44.594;2022-12-18T07:28:46;3.43;118.99
75284;HTU21D;63877;48.702;44.594;2022-12-18T07:31:14;3.44;118.99
75284;HTU21D;63877;48.702;44.594;2022-12-18T07:33:41;3.45;118.99
75284;HTU21D;63877;48.702;44.594;2022-12-18T07:36:07;3.48;118.99
75284;HTU21D;63877;48.702;44.594;2022-12-18T07:38:34;3.50;118.99
75284;HTU21D;63877;48.702;44.594;2022-12-18T07:41:03;3.49;118.99
75284;HTU21D;63877;48.702;44.594;2022-12-18T07:43:30;3.49;118.99
75284;HTU21D;63877;48.702;44.594;2022-12-18T07:45:56;3.50;118.99
75284;HTU21D;63877;48.702;44.594;2022-12-18T07:48:21;3.53;118.99
75284;HTU21D;63877;48.702;44.594;2022-12-18T07:50:47;3.57;118.99
75284;HTU21D;63877;48.702;44.594;2022-12-18T07:53:13;3.58;118.99
75284;HTU21D;63877;48.702;44.594;2022-12-18T07:55:40;3.59;118.99
75284;HTU21D;63877;48.702;44.594;2022-12-18T07:58:06;3.61;118.99
75284;HTU21D;63877;48.702;44.594;2022-12-18T08:00:33;3.65;118.99
75284;HTU21D;63877;48.702;44.594;2022-12-18T08:02:59;3.68;118.99
75284;HTU21D;63877;48.702;44.594;2022-12-18T08:05:24;3.72;118.99
75284;HTU21D;63877;48.702;44.594;2022-12-18T08:07:50;3.74;118.99
75284;HTU21D;63877;48.702;44.594;2022-12-18T08:10:16;3.76;118.99
75284;HTU21D;63877;48.702;44.594;2022-12-18T08:12:42;3.79;118.99
75284;HTU21D;63877;48.702;44.594;2022-12-18T08:15:07;3.85;118.99
75284;HTU21D;63877;48.702;44.594;2022-12-18T08:17:33;3.88;118.99
75284;HTU21D;63877;48.702;44.594;2022-12-18T08:19:59;3.91;118.99
75284;HTU21D;63877;48.702;44.594;2022-12-18T08:22:25;3.92;118.99
75284;HTU21D;63877;48.702;44.594;2022-12-18T08:24:51;3.93;118.99
75284;HTU21D;63877;48.702;44.594;2022-12-18T08:27:16;3.91;118.99
75284;HTU21D;63877;48.702;44.594;2022-12-18T08:29:43;3.93;118.99
75284;HTU21D;63877;48.702;44.594;2022-12-18T08:32:08;3.95;118.99
75284;HTU21D;63877;48.702;44.594;2022-12-18T08:34:34;3.97;118.99
75284;HTU21D;63877;48.702;44.594;2022-12-18T08:37:00;3.97;118.99
75284;HTU21D;63877;48.702;44.594;2022-12-18T08:39:26;3.99;118.99
75284;HTU21D;63877;48.702;44.594;2022-12-18T08:41:51;4.00;118.99
75284;HTU21D;63877;48.702;44.594;2022-12-18T08:44:36;4.01;118.99
75284;HTU21D;63877;48.702;44.594;2022-12-18T08:47:05;4.03;118.99
75284;HTU21D;63877;48.702;44.594;2022-12-18T08:49:31;4.05;118.99
75284;HTU21D;63877;48.702;44.594;2022-12-18T08:51:57;4.05;118.99
75284;HTU21D;63877;48.702;44.594;2022-12-18T08:54:23;4.05;118.99
75284;HTU21D;63877;48.702;44.594;2022-12-18T08:56:49;4.06;118.99
75284;HTU21D;63877;48.702;44.594;2022-12-18T08:59:18;4.09;118.99
75284;HTU21D;63877;48.702;44.594;2022-12-18T09:01:44;4.12;118.99
75284;HTU21D;63877;48.702;44.594;2022-12-18T09:04:10;4.16;118.99
75284;HTU21D;63877;48.702;44.594;2022-12-18T09:06:36;4.20;118.99
75284;HTU21D;63877;48.702;44.594;2022-12-18T09:09:02;4.24;118.99
75284;HTU21D;63877;48.702;44.594;2022-12-18T09:11:29;4.32;118.99
75284;HTU21D;63877;48.702;44.594;2022-12-18T09:13:55;4.34;118.99
75284;HTU21D;63877;48.702;44.594;2022-12-18T09:16:21;4.35;118.99
75284;HTU21D;63877;48.702;44.594;2022-12-18T09:18:47;4.38;118.99
75284;HTU21D;63877;48.702;44.594;2022-12-18T09:21:15;4.37;118.99
75284;HTU21D;63877;48.702;44.594;2022-12-18T09:23:42;4.36;118.99
75284;HTU21D;63877;48.702;44.594;2022-12-18T09:26:07;4.37;118.99
75284;HTU21D;63877;48.702;44.594;2022-12-18T09:28:33;4.38;118.99
75284;HTU21D;63877;48.702;44.594;2022-12-18T09:31:02;4.39;118.99
75284;HTU21D;63877;48.702;44.594;2022-12-18T09:33:28;4.43;118.99
75284;HTU21D;63877;48.702;44.594;2022-12-18T09:35:54;4.45;118.99
75284;HTU21D;63877;48.702;44.594;2022-12-18T09:38:20;4.47;118.99
75284;HTU21D;63877;48.702;44.594;2022-12-18T09:40:52;4.48;118.99
75284;HTU21D;63877;48.702;44.594;2022-12-18T09:43:24;4.50;118.99
75284;HTU21D;63877;48.702;44.594;2022-12-18T09:45:58;4.52;118.99
75284;HTU21D;63877;48.702;44.594;2022-12-18T09:48:26;4.56;118.99
75284;HTU21D;63877;48.702;44.594;2022-12-18T09:50:54;4.61;118.99
75284;HTU21D;63877;48.702;44.594;2022-12-18T09:53:22;4.61;118.99
75284;HTU21D;63877;48.702;44.594;2022-12-18T09:55:50;4.59;118.99
75284;HTU21D;63877;48.702;44.594;2022-12-18T09:58:18;4.59;118.99
75284;HTU21D;63877;48.702;44.594;2022-12-18T10:00:44;4.56;118.99
75284;HTU21D;63877;48.702;44.594;2022-12-18T10:03:11;4.56;118.99
75284;HTU21D;63877;48.702;44.594;2022-12-18T10:10:34;4.54;118.99
75284;HTU21D;63877;48.702;44.594;2022-12-18T10:13:15;4.54;118.99
75284;HTU21D;63877;48.702;44.594;2022-12-18T10:20:51;4.69;118.99
75284;HTU21D;63877;48.702;44.594;2022-12-18T10:28:16;4.77;118.99
75284;HTU21D;63877;48.702;44.594;2022-12-18T10:30:42;4.79;118.99
75284;HTU21D;63877;48.702;44.594;2022-12-18T10:33:19;4.82;118.99
75284;HTU21D;63877;48.702;44.594;2022-12-18T10:35:45;4.81;118.99
75284;HTU21D;63877;48.702;44.594;2022-12-18T10:40:56;4.80;118.99
75284;HTU21D;63877;48.702;44.594;2022-12-18T10:43:27;4.79;118.99
75284;HTU21D;63877;48.702;44.594;2022-12-18T10:45:58;4.80;118.99
75284;HTU21D;63877;48.702;44.594;2022-12-18T10:48:24;4.82;118.99
75284;HTU21D;63877;48.702;44.594;2022-12-18T10:50:50;4.84;118.99
75284;HTU21D;63877;48.702;44.594;2022-12-18T10:53:35;4.90;118.99
75284;HTU21D;63877;48.702;44.594;2022-12-18T10:56:02;4.95;118.99
75284;HTU21D;63877;48.702;44.594;2022-12-18T10:58:32;5.02;118.99
75284;HTU21D;63877;48.702;44.594;2022-12-18T11:01:09;5.07;118.99
75284;HTU21D;63877;48.702;44.594;2022-12-18T11:04:22;5.12;118.99
75284;HTU21D;63877;48.702;44.594;2022-12-18T11:06:22;5.13;118.99
75284;HTU21D;63877;48.702;44.594;2022-12-18T11:09:06;5.15;118.99
75284;HTU21D;63877;48.702;44.594;2022-12-18T11:11:47;5.13;118.99
75284;HTU21D;63877;48.702;44.594;2022-12-18T11:14:18;5.15;118.99
75284;HTU21D;63877;48.702;44.594;2022-12-18T11:16:46;5.16;118.99
75284;HTU21D;63877;48.702;44.594;2022-12-18T11:21:50;5.11;118.99
75284;HTU21D;63877;48.702;44.594;2022-12-18T11:24:35;5.10;118.99
75284;HTU21D;63877;48.702;44.594;2022-12-18T11:27:02;5.09;118.99
75284;HTU21D;63877;48.702;44.594;2022-12-18T11:29:35;5.07;118.99
75284;HTU21D;63877;48.702;44.594;2022-12-18T11:34:46;5.04;118.99
75284;HTU21D;63877;48.702;44.594;2022-12-18T11:37:13;5.03;118.99
75284;HTU21D;63877;48.702;44.594;2022-12-18T11:40:01;5.02;118.99
75284;HTU21D;63877;48.702;44.594;2022-12-18T11:42:39;5.03;118.99
75284;HTU21D;63877;48.702;44.594;2022-12-18T11:50:02;5.03;118.99
75284;HTU21D;63877;48.702;44.594;2022-12-18T11:52:36;5.04;118.99
75284;HTU21D;63877;48.702;44.594;2022-12-18T11:55:13;5.05;118.99
75284;HTU21D;63877;48.702;44.594;2022-12-18T11:57:50;5.04;118.99
75284;HTU21D;63877;48.702;44.594;2022-12-18T12:00:20;5.03;118.99
75284;HTU21D;63877;48.702;44.594;2022-12-18T12:07:55;5.03;118.99
75284;HTU21D;63877;48.702;44.594;2022-12-18T12:10:28;5.00;118.99
75284;HTU21D;63877;48.702;44.594;2022-12-18T12:21:06;4.94;118.99
75284;HTU21D;63877;48.702;44.594;2022-12-18T12:23:48;4.93;118.99
75284;HTU21D;63877;48.702;44.594;2022-12-18T12:26:19;4.91;118.99
75284;HTU21D;63877;48.702;44.594;2022-12-18T12:28:52;4.90;118.99
75284;HTU21D;63877;48.702;44.594;2022-12-18T12:31:24;4.89;118.99
75284;HTU21D;63877;48.702;44.594;2022-12-18T12:38:47;4.84;118.99
75284;HTU21D;63877;48.702;44.594;2022-12-18T12:41:17;4.82;118.99
75284;HTU21D;63877;48.702;44.594;2022-12-18T12:44:03;4.83;118.99
75284;HTU21D;63877;48.702;44.594;2022-12-18T12:46:30;4.80;118.99
75284;HTU21D;63877;48.702;44.594;2022-12-18T12:48:59;4.80;118.99
75284;HTU21D;63877;48.702;44.594;2022-12-18T12:53:50;4.76;118.99
75284;HTU21D;63877;48.702;44.594;2022-12-18T12:56:18;4.77;118.99
75284;HTU21D;63877;48.702;44.594;2022-12-18T12:58:59;4.75;118.99
75284;HTU21D;63877;48.702;44.594;2022-12-18T13:09:07;4.73;118.99
75284;HTU21D;63877;48.702;44.594;2022-12-18T13:11:39;4.72;118.99
75284;HTU21D;63877;48.702;44.594;2022-12-18T13:14:37;4.72;118.99
75284;HTU21D;63877;48.702;44.594;2022-12-18T13:19:51;4.75;118.99
75284;HTU21D;63877;48.702;44.594;2022-12-18T13:22:21;4.74;118.99
75284;HTU21D;63877;48.702;44.594;2022-12-18T13:24:47;4.74;118.99
75284;HTU21D;63877;48.702;44.594;2022-12-18T13:29:58;4.75;118.99
75284;HTU21D;63877;48.702;44.594;2022-12-18T13:32:24;4.76;118.99
75284;HTU21D;63877;48.702;44.594;2022-12-18T13:40:24;4.79;118.99
75284;HTU21D;63877;48.702;44.594;2022-12-18T13:42:50;4.80;118.99
75284;HTU21D;63877;48.702;44.594;2022-12-18T13:45:47;4.81;118.99
75284;HTU21D;63877;48.702;44.594;2022-12-18T13:48:19;4.80;118.99
75284;HTU21D;63877;48.702;44.594;2022-12-18T13:53:43;4.78;118.99
75284;HTU21D;63877;48.702;44.594;2022-12-18T13:56:14;4.79;118.99
75284;HTU21D;63877;48.702;44.594;2022-12-18T13:58:40;4.78;118.99
75284;HTU21D;63877;48.702;44.594;2022-12-18T14:01:15;4.79;118.99
75284;HTU21D;63877;48.702;44.594;2022-12-18T14:03:46;4.79;118.99
75284;HTU21D;63877;48.702;44.594;2022-12-18T14:06:12;4.79;118.99
75284;HTU21D;63877;48.702;44.594;2022-12-18T14:08:39;4.78;118.99
75284;HTU21D;63877;48.702;44.594;2022-12-18T14:11:05;4.78;118.99
75284;HTU21D;63877;48.702;44.594;2022-12-18T14:13:33;4.77;118.99
75284;HTU21D;63877;48.702;44.594;2022-12-18T14:16:01;4.76;118.99
75284;HTU21D;63877;48.702;44.594;2022-12-18T14:20:55;4.74;118.99
75284;HTU21D;63877;48.702;44.594;2022-12-18T14:23:35;4.74;118.99
75284;HTU21D;63877;48.702;44.594;2022-12-18T14:26:02;4.75;118.99
75284;HTU21D;63877;48.702;44.594;2022-12-18T14:28:28;4.74;118.99
75284;HTU21D;63877;48.702;44.594;2022-12-18T14:30:55;4.73;118.99
75284;HTU21D;63877;48.702;44.594;2022-12-18T14:33:22;4.73;118.99
75284;HTU21D;63877;48.702;44.594;2022-12-18T14:35:55;4.73;118.99
75284;HTU21D;63877;48.702;44.594;2022-12-18T14:38:28;4.74;118.99
75284;HTU21D;63877;48.702;44.594;2022-12-18T14:40:56;4.71;118.99
75284;HTU21D;63877;48.702;44.594;2022-12-18T14:43:25;4.73;118.99
75284;HTU21D;63877;48.702;44.594;2022-12-18T14:45:52;4.73;118.99
75284;HTU21D;63877;48.702;44.594;2022-12-18T14:48:19;4.73;118.99
75284;HTU21D;63877;48.702;44.594;2022-12-18T14:50:53;4.74;118.99
75284;HTU21D;63877;48.702;44.594;2022-12-18T14:53:22;4.73;118.99
75284;HTU21D;63877;48.702;44.594;2022-12-18T14:55:48;4.74;118.99
75284;HTU21D;63877;48.702;44.594;2022-12-18T14:58:18;4.74;118.99
75284;HTU21D;63877;48.702;44.594;2022-12-18T15:00:44;4.74;118.99
75284;HTU21D;63877;48.702;44.594;2022-12-18T15:03:09;4.74;118.99
75284;HTU21D;63877;48.702;44.594;2022-12-18T15:05:35;4.74;118.99
75284;HTU21D;63877;48.702;44.594;2022-12-18T15:08:02;4.73;118.99
75284;HTU21D;63877;48.702;44.594;2022-12-18T15:10:31;4.72;118.99
75284;HTU21D;63877;48.702;44.594;2022-12-18T15:18:05;4.72;118.99
75284;HTU21D;63877;48.702;44.594;2022-12-18T15:20:39;4.72;118.99
75284;HTU21D;63877;48.702;44.594;2022-12-18T15:31:24;4.64;118.99
75284;HTU21D;63877;48.702;44.594;2022-12-18T15:36:17;4.62;118.99
75284;HTU21D;63877;48.702;44.594;2022-12-18T15:38:46;4.61;118.99
75284;HTU21D;63877;48.702;44.594;2022-12-18T15:41:13;4.62;118.99
75284;HTU21D;63877;48.702;44.594;2022-12-18T15:43:39;4.59;118.99
75284;HTU21D;63877;48.702;44.594;2022-12-18T15:46:06;4.58;118.99
75284;HTU21D;63877;48.702;44.594;2022-12-18T15:48:33;4.58;118.99
75284;HTU21D;63877;48.702;44.594;2022-12-18T15:50:59;4.57;118.99
75284;HTU21D;63877;48.702;44.594;2022-12-18T15:53:27;4.58;118.99
75284;HTU21D;63877;48.702;44.594;2022-12-18T15:55:54;4.58;118.99
75284;HTU21D;63877;48.702;44.594;2022-12-18T15:58:41;4.58;118.99
75284;HTU21D;63877;48.702;44.594;2022-12-18T16:01:08;4.58;118.99
75284;HTU21D;63877;48.702;44.594;2022-12-18T16:03:34;4.57;118.99
75284;HTU21D;63877;48.702;44.594;2022-12-18T16:06:00;4.57;118.99
75284;HTU21D;63877;48.702;44.594;2022-12-18T16:08:30;4.57;118.99
75284;HTU21D;63877;48.702;44.594;2022-12-18T16:10:57;4.59;118.99
75284;HTU21D;63877;48.702;44.594;2022-12-18T16:13:23;4.58;118.99
75284;HTU21D;63877;48.702;44.594;2022-12-18T16:15:49;4.58;118.99
75284;HTU21D;63877;48.702;44.594;2022-12-18T16:18:15;4.56;118.99
75284;HTU21D;63877;48.702;44.594;2022-12-18T16:20:41;4.56;118.99
75284;HTU21D;63877;48.702;44.594;2022-12-18T16:23:07;4.56;118.99
75284;HTU21D;63877;48.702;44.594;2022-12-18T16:25:32;4.54;118.99
75284;HTU21D;63877;48.702;44.594;2022-12-18T16:27:58;4.56;118.99
75284;HTU21D;63877;48.702;44.594;2022-12-18T16:30:27;4.56;118.99
75284;HTU21D;63877;48.702;44.594;2022-12-18T16:32:53;4.56;118.99
75284;HTU21D;63877;48.702;44.594;2022-12-18T16:35:19;4.58;118.99
75284;HTU21D;63877;48.702;44.594;2022-12-18T16:37:45;4.59;118.99
75284;HTU21D;63877;48.702;44.594;2022-12-18T16:40:12;4.59;118.99
75284;HTU21D;63877;48.702;44.594;2022-12-18T16:42:39;4.59;118.99
75284;HTU21D;63877;48.702;44.594;2022-12-18T16:45:05;4.58;118.99
75284;HTU21D;63877;48.702;44.594;2022-12-18T16:47:31;4.58;118.99
75284;HTU21D;63877;48.702;44.594;2022-12-18T16:49:57;4.56;118.99
75284;HTU21D;63877;48.702;44.594;2022-12-18T16:52:23;4.56;118.99
75284;HTU21D;63877;48.702;44.594;2022-12-18T16:54:49;4.56;118.99
75284;HTU21D;63877;48.702;44.594;2022-12-18T16:57:16;4.53;118.99
75284;HTU21D;63877;48.702;44.594;2022-12-18T16:59:41;4.52;118.99
75284;HTU21D;63877;48.702;44.594;2022-12-18T17:02:17;4.53;118.99
75284;HTU21D;63877;48.702;44.594;2022-12-18T17:04:43;4.54;118.99
75284;HTU21D;63877;48.702;44.594;2022-12-18T17:07:09;4.53;118.99
75284;HTU21D;63877;48.702;44.594;2022-12-18T17:09:35;4.52;118.99
75284;HTU21D;63877;48.702;44.594;2022-12-18T17:12:02;4.53;118.99
75284;HTU21D;63877;48.702;44.594;2022-12-18T17:14:28;4.56;118.99